createdAt,value
2022-10-03T00:00:32.937Z,0.82
2022-10-03T00:03:22.886Z,0.70
2022-10-03T00:05:56.268Z,0.70
2022-10-03T00:09:01.623Z,0.62
2022-10-03T00:11:41.341Z,0.70
2022-10-03T00:14:30.159Z,0.80
2022-10-03T00:17:39.168Z,0.70
2022-10-03T00:20:45.285Z,0.98
2022-10-03T00:23:24.120Z,1.08
2022-10-03T00:26:27.635Z,0.90
2022-10-03T00:29:01.245Z,1.00
2022-10-03T00:31:34.777Z,0.70
2022-10-03T00:34:19.566Z,0.90
2022-10-03T00:37:26.269Z,0.93
2022-10-03T00:40:50.807Z,0.62
2022-10-03T00:43:33.275Z,0.80
2022-10-03T00:46:17.658Z,1.00
2022-10-03T00:49:23.591Z,0.80
2022-10-03T00:52:17.039Z,0.75
2022-10-03T00:54:56.430Z,0.90
2022-10-03T00:57:46.172Z,1.00
2022-10-03T01:00:18.488Z,0.70
2022-10-03T01:02:52.194Z,0.70
2022-10-03T01:05:45.814Z,0.70
2022-10-03T01:08:31.523Z,0.93
2022-10-03T01:11:07.933Z,0.65
2022-10-03T01:13:50.428Z,0.88
2022-10-03T01:16:37.904Z,0.88
2022-10-03T01:19:45.773Z,1.00
2022-10-03T01:22:28.927Z,1.00
2022-10-03T01:25:25.675Z,1.30
2022-10-03T01:28:34.011Z,1.10
2022-10-03T01:31:03.396Z,0.90
2022-10-03T01:33:37.590Z,0.85
2022-10-03T01:36:26.203Z,1.15
2022-10-03T01:39:00.566Z,1.35
2022-10-03T01:41:44.619Z,1.20
2022-10-03T01:44:40.467Z,1.02
2022-10-03T01:47:20.969Z,1.20
2022-10-03T01:49:51.783Z,1.05
2022-10-03T01:52:37.207Z,1.23
2022-10-03T01:55:32.883Z,0.90
2022-10-03T01:58:11.157Z,1.23
2022-10-03T02:01:23.307Z,1.35
2022-10-03T02:03:57.608Z,1.23
2022-10-03T02:06:38.332Z,1.45
2022-10-03T02:09:26.559Z,1.25
2022-10-03T02:12:01.909Z,1.12
2022-10-03T02:14:41.865Z,1.05
2022-10-03T02:17:22.624Z,1.35
2022-10-03T02:20:13.780Z,1.20
2022-10-03T02:22:46.189Z,1.33
2022-10-03T02:25:25.639Z,1.12
2022-10-03T02:28:08.070Z,1.35
2022-10-03T02:30:37.148Z,1.20
2022-10-03T02:33:19.634Z,1.10
2022-10-03T02:35:57.408Z,1.30
2022-10-03T02:38:54.668Z,1.40
2022-10-03T02:41:32.721Z,1.20
2022-10-03T02:44:15.760Z,1.05
2022-10-03T02:47:37.349Z,1.08
2022-10-03T02:50:38.890Z,1.23
2022-10-03T02:53:35.727Z,1.10
2022-10-03T02:56:51.413Z,1.25
2022-10-03T02:59:32.109Z,1.50
2022-10-03T03:02:09.873Z,1.30
2022-10-03T03:04:52.108Z,1.30
2022-10-03T03:07:49.085Z,1.15
2022-10-03T03:10:52.548Z,1.50
2022-10-03T03:13:41.198Z,1.30
2022-10-03T03:16:50.416Z,1.40
2022-10-03T03:19:26.498Z,1.58
2022-10-03T03:22:04.034Z,1.33
2022-10-03T03:24:59.575Z,1.70
2022-10-03T03:27:39.823Z,1.48
2022-10-03T03:30:20.538Z,1.77
2022-10-03T03:33:11.125Z,1.67
2022-10-03T03:36:01.615Z,2.05
2022-10-03T03:39:04.203Z,1.42
2022-10-03T03:41:45.289Z,1.30
2022-10-03T03:44:42.666Z,1.70
2022-10-03T03:47:34.758Z,1.80
2022-10-03T03:50:29.847Z,1.87
2022-10-03T03:53:51.305Z,1.60
2022-10-03T03:56:27.611Z,1.48
2022-10-03T03:59:08.435Z,1.85
2022-10-03T04:01:46.639Z,1.77
2022-10-03T04:04:39.234Z,1.75
2022-10-03T04:07:19.487Z,1.80
2022-10-03T04:10:07.389Z,1.83
2022-10-03T04:13:19.262Z,2.22
2022-10-03T04:16:00.545Z,1.80
2022-10-03T04:18:54.631Z,1.75
2022-10-03T04:22:03.909Z,1.52
2022-10-03T04:24:46.192Z,1.87
2022-10-03T04:30:10.051Z,1.70
2022-10-03T04:32:59.855Z,1.75
2022-10-03T04:35:33.259Z,1.67
2022-10-03T04:38:12.002Z,1.95
2022-10-03T04:40:59.836Z,1.65
2022-10-03T04:43:52.520Z,2.05
2022-10-03T04:46:27.783Z,1.77
2022-10-03T04:49:05.284Z,1.55
2022-10-03T04:51:41.834Z,1.80
2022-10-03T04:54:21.946Z,1.85
2022-10-03T04:57:07.923Z,2.12
2022-10-03T04:59:42.798Z,1.58
2022-10-03T05:02:30.527Z,1.87
2022-10-03T05:05:23.123Z,1.77
2022-10-03T05:07:56.482Z,2.50
2022-10-03T05:10:39.237Z,1.83
2022-10-03T05:15:51.785Z,1.75
2022-10-03T05:18:37.868Z,1.83
2022-10-03T05:21:14.411Z,1.80
2022-10-03T05:24:02.865Z,2.00
2022-10-03T05:26:44.942Z,1.90
2022-10-03T05:32:10.132Z,1.77
2022-10-03T05:34:49.621Z,2.03
2022-10-03T05:37:28.992Z,1.80
2022-10-03T05:40:14.492Z,2.53
2022-10-03T05:43:01.724Z,2.92
2022-10-03T05:45:36.426Z,2.00
2022-10-03T05:48:11.503Z,1.60
2022-10-03T05:50:56.644Z,1.50
2022-10-03T05:53:30.235Z,1.60
2022-10-03T05:56:27.141Z,1.60
2022-10-03T05:59:25.696Z,1.98
2022-10-03T06:02:14.690Z,1.70
2022-10-03T06:04:53.380Z,1.20
2022-10-03T06:07:29.323Z,1.30
2022-10-03T06:10:21.517Z,1.50
2022-10-03T06:13:05.958Z,1.40
2022-10-03T06:15:39.596Z,1.25
2022-10-03T06:18:32.231Z,1.25
2022-10-03T06:21:56.852Z,1.60
2022-10-03T06:24:56.235Z,1.55
2022-10-03T06:27:48.755Z,1.42
2022-10-03T06:30:22.022Z,1.20
2022-10-03T06:33:11.169Z,1.12
2022-10-03T06:36:11.896Z,1.48
2022-10-03T06:39:10.701Z,1.17
2022-10-03T06:42:08.971Z,1.42
2022-10-03T06:44:55.080Z,1.58
2022-10-03T06:47:39.175Z,1.10
2022-10-03T06:51:00.863Z,1.50
2022-10-03T06:53:45.439Z,1.30
2022-10-03T06:56:31.805Z,1.17
2022-10-03T06:59:36.330Z,1.73
2022-10-03T07:02:20.317Z,1.33
2022-10-03T07:05:02.708Z,1.30
2022-10-03T07:08:02.508Z,1.33
2022-10-03T07:10:54.591Z,1.48
2022-10-03T07:14:00.841Z,1.80
2022-10-03T07:17:03.161Z,1.73
2022-10-03T07:20:02.279Z,1.45
2022-10-03T07:22:35.643Z,1.58
2022-10-03T07:25:25.633Z,1.50
2022-10-03T07:27:59.073Z,1.30
2022-10-03T07:30:32.137Z,1.52
2022-10-03T07:33:27.764Z,1.20
2022-10-03T07:36:56.337Z,1.40
2022-10-03T07:39:43.303Z,1.45
2022-10-03T07:42:42.429Z,1.80
2022-10-03T07:45:37.999Z,1.02
2022-10-03T07:48:18.202Z,2.12
2022-10-03T07:51:04.248Z,1.60
2022-10-03T07:53:53.726Z,1.62
2022-10-03T07:56:49.071Z,1.20
2022-10-03T08:00:02.809Z,1.33
2022-10-03T08:03:17.025Z,1.62
2022-10-03T08:06:06.742Z,1.30
2022-10-03T08:08:50.439Z,1.30
2022-10-03T08:11:41.601Z,1.65
2022-10-03T08:14:19.044Z,1.12
2022-10-03T08:17:04.873Z,1.40
2022-10-03T08:19:50.324Z,1.12
2022-10-03T08:22:36.563Z,1.00
2022-10-03T08:25:20.100Z,1.30
2022-10-03T08:28:10.788Z,1.20
2022-10-03T08:31:09.306Z,1.30
2022-10-03T08:34:01.755Z,1.20
2022-10-03T08:36:59.815Z,0.93
2022-10-03T08:39:45.516Z,1.12
2022-10-03T08:42:38.631Z,1.12
2022-10-03T08:45:43.123Z,1.10
2022-10-03T08:48:40.895Z,1.30
2022-10-03T08:51:49.994Z,1.15
2022-10-03T08:55:02.364Z,1.40
2022-10-03T08:57:41.094Z,1.12
2022-10-03T09:00:22.815Z,1.90
2022-10-03T09:03:28.636Z,1.90
2022-10-03T09:06:24.372Z,1.83
2022-10-03T09:09:12.069Z,2.47
2022-10-03T09:12:24.474Z,1.52
2022-10-03T09:15:01.045Z,1.50
2022-10-03T09:17:46.826Z,1.60
2022-10-03T09:20:25.908Z,1.83
2022-10-03T09:23:16.162Z,1.75
2022-10-03T09:26:21.179Z,1.92
2022-10-03T09:29:06.269Z,0.93
2022-10-03T09:32:11.045Z,1.83
2022-10-03T09:34:54.804Z,1.33
2022-10-03T09:38:00.105Z,1.33
2022-10-03T09:41:00.716Z,1.27
2022-10-03T09:43:45.833Z,0.98
2022-10-03T09:46:40.893Z,1.25
2022-10-03T09:49:52.460Z,1.00
2022-10-03T09:52:33.083Z,1.33
2022-10-03T09:55:12.643Z,1.30
2022-10-03T09:58:15.452Z,1.35
2022-10-03T10:01:11.362Z,1.50
2022-10-03T10:04:11.519Z,1.45
2022-10-03T10:07:08.182Z,1.17
2022-10-03T10:10:13.804Z,1.45
2022-10-03T10:13:11.983Z,0.85
2022-10-03T10:15:53.383Z,0.80
2022-10-03T10:18:54.294Z,0.90
2022-10-03T10:21:46.410Z,0.80
2022-10-03T10:24:22.614Z,1.40
2022-10-03T10:27:19.664Z,1.20
2022-10-03T10:30:02.672Z,0.70
2022-10-03T10:32:52.267Z,1.05
2022-10-03T10:35:39.402Z,0.80
2022-10-03T10:38:25.943Z,0.70
2022-10-03T10:41:17.636Z,0.73
2022-10-03T10:44:07.125Z,0.77
2022-10-03T10:46:59.075Z,0.80
2022-10-03T10:49:41.615Z,0.80
2022-10-03T10:52:29.279Z,1.25
2022-10-03T10:55:19.518Z,1.00
2022-10-03T10:58:05.104Z,0.82
2022-10-03T11:00:44.753Z,0.77
2022-10-03T11:03:50.396Z,0.82
2022-10-03T11:06:45.945Z,0.90
2022-10-03T11:09:28.473Z,0.73
2022-10-03T11:12:27.130Z,1.23
2022-10-03T11:15:15.639Z,0.70
2022-10-03T11:17:47.562Z,0.90
2022-10-03T11:20:49.312Z,0.75
2022-10-03T11:23:50.925Z,1.23
2022-10-03T11:27:00.842Z,0.45
2022-10-03T11:29:39.449Z,0.57
2022-10-03T11:32:46.631Z,0.52
2022-10-03T11:35:32.697Z,0.77
2022-10-03T11:38:25.320Z,0.73
2022-10-03T11:41:01.938Z,0.70
2022-10-03T11:43:53.376Z,0.60
2022-10-03T11:46:59.731Z,0.60
2022-10-03T11:49:49.143Z,0.68
2022-10-03T11:52:35.288Z,0.68
2022-10-03T11:55:08.804Z,0.73
2022-10-03T11:57:39.268Z,0.75
2022-10-03T12:00:16.706Z,0.52
2022-10-03T12:03:08.167Z,0.50
2022-10-03T12:05:46.270Z,0.77
2022-10-03T12:08:38.668Z,0.77
2022-10-03T12:11:18.011Z,0.57
2022-10-03T12:14:11.779Z,0.60
2022-10-03T12:17:15.860Z,0.70
2022-10-03T12:19:46.283Z,0.93
2022-10-03T12:22:22.912Z,0.40
2022-10-03T12:24:50.751Z,1.25
2022-10-03T12:28:01.614Z,1.95
2022-10-03T12:30:55.446Z,0.70
2022-10-03T12:33:51.654Z,0.80
2022-10-03T12:36:45.217Z,1.00
2022-10-03T12:39:44.948Z,0.70
2022-10-03T12:42:19.649Z,0.60
2022-10-03T12:45:25.721Z,0.55
2022-10-03T12:47:56.076Z,0.77
2022-10-03T12:51:01.906Z,0.85
2022-10-03T12:53:41.877Z,0.60
2022-10-03T12:56:18.357Z,0.50
2022-10-03T12:58:53.700Z,0.50
2022-10-03T13:01:20.885Z,1.00
2022-10-03T13:03:54.567Z,1.10
2022-10-03T13:07:04.571Z,0.80
2022-10-03T13:09:43.943Z,0.70
2022-10-03T13:12:34.883Z,0.82
2022-10-03T13:15:40.475Z,0.90
2022-10-03T13:18:18.406Z,1.10
2022-10-03T13:21:26.770Z,0.70
2022-10-03T13:24:04.545Z,0.90
2022-10-03T13:26:56.674Z,0.85
2022-10-03T13:29:40.483Z,0.90
2022-10-03T13:32:32.456Z,0.88
2022-10-03T13:35:36.953Z,0.80
2022-10-03T13:38:28.371Z,0.55
2022-10-03T13:41:04.072Z,0.60
2022-10-03T13:43:36.207Z,0.80
2022-10-03T13:46:16.809Z,0.80
2022-10-03T13:48:51.515Z,0.60
2022-10-03T13:51:25.216Z,0.95
2022-10-03T13:54:07.905Z,0.88
2022-10-03T13:59:21.882Z,0.60
2022-10-03T14:04:55.388Z,0.60
2022-10-03T14:07:39.275Z,0.82
2022-10-03T14:10:19.681Z,0.65
2022-10-03T14:13:17.403Z,0.70
2022-10-03T14:15:47.637Z,0.70
2022-10-03T14:18:37.553Z,0.80
2022-10-03T14:21:39.998Z,0.60
2022-10-03T14:24:37.011Z,0.60
2022-10-03T14:27:38.927Z,0.70
2022-10-03T14:30:13.039Z,0.55
2022-10-03T14:32:59.525Z,0.50
2022-10-03T14:35:39.647Z,0.50
2022-10-03T14:38:54.056Z,0.52
2022-10-03T14:41:26.428Z,0.50
2022-10-03T14:43:57.002Z,0.73
2022-10-03T14:46:26.273Z,0.80
2022-10-03T14:48:59.421Z,0.70
2022-10-03T14:51:31.551Z,0.60
2022-10-03T14:54:02.902Z,0.80
2022-10-03T14:56:34.935Z,0.53
2022-10-03T14:59:12.016Z,0.60
2022-10-03T15:01:49.577Z,0.75
2022-10-03T15:04:32.108Z,0.77
2022-10-03T15:07:02.736Z,0.80
2022-10-03T15:09:40.898Z,0.90
2022-10-03T15:12:24.210Z,0.70
2022-10-03T15:15:00.084Z,0.70
2022-10-03T15:17:30.438Z,0.90
2022-10-03T15:19:59.945Z,1.00
2022-10-03T15:22:42.333Z,0.90
2022-10-03T15:25:17.794Z,1.10
2022-10-03T15:27:53.920Z,1.67
2022-10-03T15:30:31.815Z,1.27
2022-10-03T15:33:25.988Z,0.60
2022-10-03T15:35:55.440Z,0.73
2022-10-03T15:38:26.792Z,1.10
2022-10-03T15:41:00.455Z,1.10
2022-10-03T15:43:34.357Z,0.70
2022-10-03T15:46:05.502Z,0.90
2022-10-03T15:48:33.188Z,0.68
2022-10-03T15:51:17.208Z,1.10
2022-10-03T15:53:48.178Z,1.87
2022-10-03T15:56:43.862Z,0.80
2022-10-03T15:59:21.980Z,0.68
2022-10-03T16:01:52.628Z,1.05
2022-10-03T16:04:24.252Z,0.88
2022-10-03T16:07:10.883Z,1.50
2022-10-03T16:09:56.591Z,1.00
2022-10-03T16:12:45.904Z,0.73
2022-10-03T16:15:27.492Z,0.80
2022-10-03T16:18:01.111Z,1.12
2022-10-03T16:20:29.643Z,0.57
2022-10-03T16:22:59.132Z,0.70
2022-10-03T16:25:40.339Z,1.12
2022-10-03T16:28:12.565Z,1.12
2022-10-03T16:30:47.478Z,1.20
2022-10-03T16:33:23.717Z,2.17
2022-10-03T16:35:53.739Z,4.60
2022-10-03T16:38:24.401Z,2.12
2022-10-03T16:41:10.471Z,1.30
2022-10-03T16:43:38.121Z,1.20
2022-10-03T16:46:09.822Z,1.37
2022-10-03T16:48:55.859Z,2.40
2022-10-03T16:51:43.166Z,2.50
2022-10-03T16:54:15.589Z,6.07
2022-10-03T16:56:51.104Z,3.65
2022-10-03T16:59:20.034Z,3.00
2022-10-03T17:01:54.088Z,1.90
2022-10-03T17:04:21.535Z,2.53
2022-10-03T17:06:51.200Z,2.62
2022-10-03T17:09:49.257Z,3.03
2022-10-03T17:12:21.842Z,2.42
2022-10-03T17:17:45.008Z,2.10
2022-10-03T17:20:18.581Z,1.80
2022-10-03T17:23:00.596Z,2.58
2022-10-03T17:25:34.628Z,1.83
2022-10-03T17:28:06.363Z,1.58
2022-10-03T17:30:45.982Z,1.87
2022-10-03T17:33:18.478Z,2.47
2022-10-03T17:36:24.729Z,2.83
2022-10-03T17:39:20.844Z,3.95
2022-10-03T17:42:33.804Z,3.75
2022-10-03T17:45:16.606Z,2.58
2022-10-03T17:50:26.459Z,1.58
2022-10-03T17:52:54.145Z,1.92
2022-10-03T17:55:31.164Z,1.75
2022-10-03T17:58:17.660Z,1.15
2022-10-03T18:00:45.245Z,1.15
2022-10-03T18:03:53.337Z,1.60
2022-10-03T18:06:20.542Z,1.80
2022-10-03T18:08:50.338Z,1.65
2022-10-03T18:11:23.868Z,0.82
2022-10-03T18:13:55.165Z,1.30
2022-10-03T18:16:36.291Z,1.40
2022-10-03T18:19:36.453Z,1.40
2022-10-03T18:22:08.225Z,1.20
2022-10-03T18:25:34.645Z,1.48
2022-10-03T18:28:39.277Z,1.08
2022-10-03T18:31:10.694Z,1.10
2022-10-03T18:33:51.045Z,1.10
2022-10-03T18:36:25.931Z,0.95
2022-10-03T18:39:17.175Z,1.45
2022-10-03T18:41:47.508Z,1.12
2022-10-03T18:44:18.606Z,1.20
2022-10-03T18:46:50.799Z,1.50
2022-10-03T18:49:36.201Z,2.28
2022-10-03T18:52:10.706Z,1.30
2022-10-03T18:54:41.074Z,1.30
2022-10-03T18:57:22.236Z,1.33
2022-10-03T19:00:14.106Z,1.75
2022-10-03T19:02:47.820Z,1.30
2022-10-03T19:05:21.870Z,1.62
2022-10-03T19:07:55.902Z,1.40
2022-10-03T19:10:39.170Z,1.20
2022-10-03T19:13:29.498Z,1.30
2022-10-03T19:16:16.871Z,1.05
2022-10-03T19:18:53.761Z,1.30
2022-10-03T19:21:22.578Z,1.52
2022-10-03T19:24:14.901Z,1.45
2022-10-03T19:26:47.641Z,1.35
2022-10-03T19:29:21.663Z,1.12
2022-10-03T19:31:59.274Z,1.90
2022-10-03T19:34:37.092Z,1.62
2022-10-03T19:37:16.252Z,1.60
2022-10-03T19:39:44.297Z,2.08
2022-10-03T19:42:33.564Z,1.67
2022-10-03T19:45:01.359Z,1.50
2022-10-03T19:47:31.871Z,1.60
2022-10-03T19:50:19.113Z,2.20
2022-10-03T19:52:48.213Z,1.55
2022-10-03T19:55:24.873Z,1.23
2022-10-03T19:57:54.979Z,1.30
2022-10-03T20:00:39.351Z,1.30
2022-10-03T20:03:12.498Z,1.30
2022-10-03T20:06:01.840Z,1.40
2022-10-03T20:09:01.952Z,1.30
2022-10-03T20:11:42.716Z,1.42
2022-10-03T20:14:34.261Z,2.55
2022-10-03T20:17:10.521Z,1.40
2022-10-03T20:19:54.265Z,1.40
2022-10-03T20:22:31.288Z,1.33
2022-10-03T20:25:00.096Z,1.40
2022-10-03T20:27:27.296Z,1.52
2022-10-03T20:30:24.592Z,1.37
2022-10-03T20:32:53.632Z,1.40
2022-10-03T20:35:27.224Z,1.00
2022-10-03T20:38:02.265Z,1.30
2022-10-03T20:40:36.397Z,1.30
2022-10-03T20:43:20.013Z,1.08
2022-10-03T20:46:10.800Z,1.62
2022-10-03T20:48:42.811Z,1.40
2022-10-03T20:51:21.249Z,1.45
2022-10-03T20:53:53.147Z,1.10
2022-10-03T20:56:25.385Z,1.10
2022-10-03T20:58:57.024Z,1.35
2022-10-03T21:01:26.082Z,1.10
2022-10-03T21:04:27.933Z,1.50
2022-10-03T21:07:05.865Z,1.48
2022-10-03T21:09:43.577Z,1.62
2022-10-03T21:12:17.159Z,1.60
2022-10-03T21:14:48.808Z,1.65
2022-10-03T21:17:17.428Z,1.62
2022-10-03T21:19:52.388Z,1.52
2022-10-03T21:22:23.237Z,1.58
2022-10-03T21:24:59.244Z,1.25
2022-10-03T21:27:27.113Z,1.40
2022-10-03T21:30:18.530Z,1.50
2022-10-03T21:32:54.880Z,1.85
2022-10-03T21:35:34.064Z,1.65
2022-10-03T21:38:32.188Z,1.60
2022-10-03T21:41:38.762Z,1.37
2022-10-03T21:44:29.505Z,1.70
2022-10-03T21:47:10.224Z,1.58
2022-10-03T21:49:47.639Z,1.40
2022-10-03T21:52:27.308Z,1.80
2022-10-03T21:55:21.674Z,1.50
2022-10-03T22:00:59.377Z,1.70
2022-10-03T22:03:54.400Z,1.40
2022-10-03T22:06:27.288Z,1.77
2022-10-03T22:09:01.201Z,1.37
2022-10-03T22:11:28.361Z,1.62
2022-10-03T22:14:10.060Z,1.33
2022-10-03T22:17:09.497Z,1.98
2022-10-03T22:19:42.060Z,1.45
2022-10-03T22:22:28.778Z,1.60
2022-10-03T22:25:24.358Z,1.50
2022-10-03T22:28:10.412Z,1.92
2022-10-03T22:30:44.863Z,1.80
2022-10-03T22:33:44.462Z,2.00
2022-10-03T22:36:12.540Z,1.50
2022-10-03T22:38:40.771Z,2.17
2022-10-03T22:41:12.269Z,1.98
2022-10-03T22:43:40.895Z,1.92
2022-10-03T22:46:11.605Z,1.52
2022-10-03T22:48:55.504Z,1.90
2022-10-03T22:51:23.478Z,1.52
2022-10-03T22:53:54.195Z,1.85
2022-10-03T22:56:58.537Z,1.90
2022-10-03T22:59:29.893Z,1.52
2022-10-03T23:01:59.846Z,1.92
2022-10-03T23:04:50.116Z,1.60
2022-10-03T23:08:07.115Z,1.73
2022-10-03T23:10:40.655Z,1.90
2022-10-03T23:13:17.275Z,1.87
2022-10-03T23:15:49.123Z,1.42
2022-10-03T23:18:39.027Z,1.40
2022-10-03T23:21:11.037Z,1.45
2022-10-03T23:23:50.585Z,1.80
2022-10-03T23:26:32.629Z,1.75
2022-10-03T23:29:10.464Z,1.83
2022-10-03T23:32:00.093Z,1.58
2022-10-03T23:34:36.373Z,1.42
2022-10-03T23:37:13.219Z,1.70
2022-10-03T23:39:46.255Z,2.28
2022-10-03T23:42:32.375Z,2.05
2022-10-03T23:45:00.732Z,1.70
2022-10-03T23:47:33.831Z,1.55
2022-10-03T23:50:03.107Z,1.55
2022-10-03T23:52:36.628Z,1.70
2022-10-03T23:55:06.268Z,1.55
2022-10-03T23:57:37.620Z,1.52
